createdAt,value
2022-10-22T00:02:23.940Z,99720.66
2022-10-22T00:04:51.064Z,99720.69
2022-10-22T00:07:19.137Z,99719.81
2022-10-22T00:09:46.616Z,99718.97
2022-10-22T00:12:15.559Z,99718.97
2022-10-22T00:14:42.875Z,99714.56
2022-10-22T00:17:11.479Z,99718.06
2022-10-22T00:19:39.436Z,99723.31
2022-10-22T00:22:06.686Z,99718.06
2022-10-22T00:24:34.431Z,99712.81
2022-10-22T00:27:01.697Z,99705.78
2022-10-22T00:29:28.763Z,99713.66
2022-10-22T00:31:59.005Z,99704.88
2022-10-22T00:34:25.689Z,99707.50
2022-10-22T00:36:52.868Z,99704.88
2022-10-22T00:39:21.813Z,99693.47
2022-10-22T00:41:50.090Z,99689.03
2022-10-22T00:44:54.528Z,99689.94
2022-10-22T00:47:23.952Z,99681.16
2022-10-22T00:49:53.008Z,99674.13
2022-10-22T00:52:20.071Z,99680.25
2022-10-22T00:54:46.878Z,99662.72
2022-10-22T00:57:14.429Z,99665.34
2022-10-22T00:59:41.074Z,99666.19
2022-10-22T01:02:07.657Z,99662.72
2022-10-22T01:04:34.321Z,99648.75
2022-10-22T01:07:01.478Z,99643.50
2022-10-22T01:09:41.826Z,99653.19
2022-10-22T01:12:21.558Z,99649.72
2022-10-22T01:15:06.903Z,99654.97
2022-10-22T01:17:42.186Z,99655.81
2022-10-22T01:20:25.946Z,99659.34
2022-10-22T01:23:10.288Z,99668.06
2022-10-22T01:26:01.777Z,99678.59
2022-10-22T01:29:05.823Z,99696.97
2022-10-22T01:31:38.420Z,99704.88
2022-10-22T01:34:08.391Z,99688.19
2022-10-22T01:36:37.717Z,99668.91
2022-10-22T01:39:05.746Z,99656.66
2022-10-22T01:41:32.416Z,99670.69
2022-10-22T01:43:58.985Z,99675.94
2022-10-22T01:46:27.904Z,99657.53
2022-10-22T01:49:12.903Z,99655.81
2022-10-22T01:51:51.893Z,99650.56
2022-10-22T01:54:36.583Z,99648.84
2022-10-22T01:57:20.812Z,99648.88
2022-10-22T02:00:01.819Z,99648.88
2022-10-22T02:02:49.768Z,99649.78
2022-10-22T02:05:27.456Z,99641.91
2022-10-22T02:08:08.858Z,99641.03
2022-10-22T02:10:39.728Z,99636.66
2022-10-22T02:13:12.528Z,99640.19
2022-10-22T02:15:40.695Z,99634.94
2022-10-22T02:18:09.492Z,99616.53
2022-10-22T02:20:39.040Z,99615.69
2022-10-22T02:23:06.016Z,99618.31
2022-10-22T02:25:37.368Z,99621.84
2022-10-22T02:28:19.875Z,99634.06
2022-10-22T02:30:54.049Z,99636.72
2022-10-22T02:33:35.324Z,99648.13
2022-10-22T02:36:03.124Z,99641.97
2022-10-22T02:38:30.833Z,99634.09
2022-10-22T02:40:57.906Z,99645.50
2022-10-22T02:43:25.662Z,99642.88
2022-10-22T02:45:52.443Z,99642.88
2022-10-22T02:51:06.156Z,99652.50
2022-10-22T02:53:32.831Z,99659.50
2022-10-22T02:56:00.320Z,99636.78
2022-10-22T02:58:26.928Z,99629.75
2022-10-22T03:00:53.541Z,99634.13
2022-10-22T03:03:20.139Z,99642.88
2022-10-22T03:05:46.714Z,99629.78
2022-10-22T03:08:13.280Z,99632.38
2022-10-22T03:10:39.869Z,99628.88
2022-10-22T03:13:06.511Z,99648.09
2022-10-22T03:15:33.200Z,99638.47
2022-10-22T03:17:59.776Z,99640.22
2022-10-22T03:20:26.487Z,99640.22
2022-10-22T03:22:53.286Z,99634.94
2022-10-22T03:25:24.214Z,99641.97
2022-10-22T03:27:52.639Z,99648.94
2022-10-22T03:30:19.481Z,99645.41
2022-10-22T03:32:46.115Z,99641.94
2022-10-22T03:35:12.770Z,99637.56
2022-10-22T03:37:40.219Z,99644.53
2022-10-22T03:40:08.545Z,99641.91
2022-10-22T03:42:35.302Z,99642.78
2022-10-22T03:45:02.249Z,99635.81
2022-10-22T03:47:28.893Z,99641.03
2022-10-22T03:49:55.766Z,99641.03
2022-10-22T03:52:22.363Z,99647.16
2022-10-22T03:54:48.976Z,99653.25
2022-10-22T03:57:16.099Z,99636.69
2022-10-22T03:59:45.054Z,99649.75
2022-10-22T04:02:13.611Z,99639.28
2022-10-22T04:04:40.382Z,99645.44
2022-10-22T04:07:07.573Z,99641.94
2022-10-22T04:09:35.230Z,99645.41
2022-10-22T04:12:02.064Z,99648.03
2022-10-22T04:14:28.694Z,99635.81
2022-10-22T04:16:56.684Z,99639.31
2022-10-22T04:19:23.351Z,99638.47
2022-10-22T04:21:49.997Z,99632.34
2022-10-22T04:24:16.621Z,99635.84
2022-10-22T04:26:43.386Z,99621.00
2022-10-22T04:29:13.444Z,99618.38
2022-10-22T04:31:42.719Z,99613.13
2022-10-22T04:34:09.259Z,99621.84
2022-10-22T04:36:35.880Z,99617.50
2022-10-22T04:39:03.482Z,99623.63
2022-10-22T04:41:33.252Z,99616.63
2022-10-22T04:44:00.846Z,99623.59
2022-10-22T04:46:30.138Z,99621.00
2022-10-22T04:48:56.902Z,99627.13
2022-10-22T04:51:25.490Z,99636.75
2022-10-22T04:53:52.169Z,99638.53
2022-10-22T04:56:21.990Z,99659.47
2022-10-22T04:58:50.907Z,99659.47
2022-10-22T05:01:23.138Z,99673.50
2022-10-22T05:03:51.532Z,99668.25
2022-10-22T05:06:20.981Z,99662.13
2022-10-22T05:08:48.539Z,99656.00
2022-10-22T05:11:23.104Z,99656.84
2022-10-22T05:13:49.707Z,99648.13
2022-10-22T05:16:16.378Z,99656.00
2022-10-22T05:18:44.800Z,99660.38
2022-10-22T05:21:16.513Z,99654.25
2022-10-22T05:23:44.272Z,99667.34
2022-10-22T05:26:13.534Z,99669.97
2022-10-22T05:28:40.250Z,99673.50
2022-10-22T05:31:08.876Z,99683.97
2022-10-22T05:33:35.735Z,99672.59
2022-10-22T05:36:04.099Z,99677.00
2022-10-22T05:38:32.666Z,99685.72
2022-10-22T05:41:04.980Z,99685.75
2022-10-22T05:43:31.701Z,99690.09
2022-10-22T05:46:04.153Z,99703.22
2022-10-22T05:51:18.321Z,99726.88
2022-10-22T05:53:45.079Z,99727.75
2022-10-22T05:56:16.967Z,99735.63
2022-10-22T05:58:45.060Z,99733.88
2022-10-22T06:01:15.172Z,99727.75
2022-10-22T06:03:42.714Z,99720.75
2022-10-22T06:06:22.771Z,99717.25
2022-10-22T06:08:51.383Z,99720.78
2022-10-22T06:11:19.465Z,99722.50
2022-10-22T06:13:46.498Z,99713.75
2022-10-22T06:16:13.205Z,99720.75
2022-10-22T06:18:40.023Z,99724.25
2022-10-22T06:21:09.209Z,99723.38
2022-10-22T06:23:36.879Z,99718.06
2022-10-22T06:26:04.552Z,99706.72
2022-10-22T06:28:31.646Z,99712.81
2022-10-22T06:31:02.752Z,99713.72
2022-10-22T06:33:29.958Z,99708.44
2022-10-22T06:36:07.404Z,99713.72
2022-10-22T06:38:34.529Z,99717.22
2022-10-22T06:41:09.753Z,99715.44
2022-10-22T06:43:37.117Z,99718.06
2022-10-22T06:46:07.447Z,99715.44
2022-10-22T06:48:36.199Z,99725.06
2022-10-22T06:51:05.091Z,99716.34
2022-10-22T06:53:32.315Z,99722.47
2022-10-22T06:55:59.030Z,99727.72
2022-10-22T06:58:25.674Z,99730.31
2022-10-22T07:01:05.266Z,99719.81
2022-10-22T07:03:32.688Z,99723.31
2022-10-22T07:06:05.010Z,99730.31
2022-10-22T07:08:31.702Z,99732.94
2022-10-22T07:11:10.211Z,99735.53
2022-10-22T07:13:38.820Z,99735.56
2022-10-22T07:16:07.302Z,99733.78
2022-10-22T07:18:34.283Z,99739.06
2022-10-22T07:21:02.437Z,99743.41
2022-10-22T07:23:29.576Z,99733.72
2022-10-22T07:28:43.468Z,99738.06
2022-10-22T07:31:11.925Z,99731.03
2022-10-22T07:33:39.339Z,99730.16
2022-10-22T07:36:10.515Z,99734.50
2022-10-22T07:38:37.931Z,99745.84
2022-10-22T07:41:04.728Z,99751.09
2022-10-22T07:43:31.509Z,99742.31
2022-10-22T07:46:00.495Z,99741.38
2022-10-22T07:48:27.146Z,99737.84
2022-10-22T07:50:54.243Z,99739.59
2022-10-22T07:53:21.562Z,99734.31
2022-10-22T07:55:50.154Z,99745.69
2022-10-22T07:58:18.397Z,99741.28
2022-10-22T08:00:45.667Z,99742.13
2022-10-22T08:03:13.168Z,99750.91
2022-10-22T08:05:40.243Z,99747.34
2022-10-22T08:08:07.322Z,99753.34
2022-10-22T08:10:35.166Z,99758.56
2022-10-22T08:13:01.830Z,99757.63
2022-10-22T08:15:28.479Z,99755.00
2022-10-22T08:17:55.194Z,99746.22
2022-10-22T08:20:21.836Z,99753.19
2022-10-22T08:22:49.925Z,99753.16
2022-10-22T08:25:18.560Z,99753.16
2022-10-22T08:27:45.766Z,99765.34
2022-10-22T08:30:13.278Z,99761.88
2022-10-22T08:32:40.319Z,99764.47
2022-10-22T08:35:07.238Z,99769.66
2022-10-22T08:37:33.929Z,99767.84
2022-10-22T08:40:00.521Z,99777.41
2022-10-22T08:42:49.026Z,99776.38
2022-10-22T08:45:23.144Z,99790.38
2022-10-22T08:48:22.406Z,99788.44
2022-10-22T08:50:52.716Z,99798.91
2022-10-22T08:53:25.514Z,99792.53
2022-10-22T08:55:54.061Z,99788.91
2022-10-22T08:58:39.400Z,99781.84
2022-10-22T09:01:20.153Z,99781.72
2022-10-22T09:03:53.569Z,99779.88
2022-10-22T09:06:24.523Z,99781.56
2022-10-22T09:08:52.833Z,99780.66
2022-10-22T09:11:38.479Z,99774.41
2022-10-22T09:14:06.181Z,99774.31
2022-10-22T09:16:43.114Z,99780.34
2022-10-22T09:19:17.004Z,99789.81
2022-10-22T09:22:01.975Z,99789.78
2022-10-22T09:24:40.153Z,99796.81
2022-10-22T09:27:25.821Z,99787.91
2022-10-22T09:29:52.477Z,99793.09
2022-10-22T09:32:19.576Z,99797.47
2022-10-22T09:34:50.718Z,99804.50
2022-10-22T09:37:24.954Z,99808.03
2022-10-22T09:39:56.476Z,99807.13
2022-10-22T09:42:23.867Z,99795.66
2022-10-22T09:44:56.387Z,99800.78
2022-10-22T09:47:49.996Z,99796.28
2022-10-22T09:50:41.236Z,99803.28
2022-10-22T09:53:27.463Z,99797.94
2022-10-22T09:56:01.431Z,99794.44
2022-10-22T09:58:28.387Z,99795.31
2022-10-22T10:00:58.245Z,99792.63
2022-10-22T10:03:28.070Z,99796.16
2022-10-22T10:06:01.399Z,99797.84
2022-10-22T10:08:31.758Z,99796.91
2022-10-22T10:11:09.126Z,99807.44
2022-10-22T10:13:48.050Z,99817.09
2022-10-22T10:16:23.808Z,99815.38
2022-10-22T10:19:08.579Z,99811.06
2022-10-22T10:21:45.370Z,99800.50
2022-10-22T10:24:20.173Z,99810.19
2022-10-22T10:26:55.674Z,99815.47
2022-10-22T10:29:34.965Z,99809.31
2022-10-22T10:32:26.609Z,99809.22
2022-10-22T10:35:34.431Z,99809.25
2022-10-22T10:38:24.624Z,99819.00
2022-10-22T10:41:18.062Z,99807.56
2022-10-22T10:44:10.766Z,99807.56
2022-10-22T10:46:55.348Z,99798.78
2022-10-22T10:49:33.377Z,99814.63
2022-10-22T10:52:14.413Z,99816.44
2022-10-22T10:54:58.733Z,99806.94
2022-10-22T10:57:32.433Z,99808.72
2022-10-22T11:00:20.160Z,99809.53
2022-10-22T11:03:25.382Z,99805.06
2022-10-22T11:06:00.740Z,99801.44
2022-10-22T11:08:35.805Z,99793.56
2022-10-22T11:11:38.800Z,99794.44
2022-10-22T11:14:18.594Z,99807.50
2022-10-22T11:16:54.456Z,99796.81
2022-10-22T11:19:51.664Z,99793.31
2022-10-22T11:22:29.526Z,99783.59
2022-10-22T11:25:21.522Z,99786.03
2022-10-22T11:27:51.593Z,99785.72
2022-10-22T11:30:21.103Z,99775.63
2022-10-22T11:32:52.482Z,99776.91
2022-10-22T11:35:28.438Z,99783.78
2022-10-22T11:37:56.269Z,99792.97
2022-10-22T11:40:35.901Z,99788.81
2022-10-22T11:43:08.158Z,99795.47
2022-10-22T11:45:37.226Z,99792.94
2022-10-22T11:48:09.670Z,99798.16
2022-10-22T11:51:00.320Z,99795.34
2022-10-22T11:53:39.248Z,99802.31
2022-10-22T11:56:10.614Z,99795.16
2022-10-22T11:58:39.321Z,99786.03
2022-10-22T12:01:08.652Z,99787.50
2022-10-22T12:03:35.183Z,99795.34
2022-10-22T12:06:15.744Z,99794.44
2022-10-22T12:08:52.379Z,99791.72
2022-10-22T12:11:26.178Z,99782.25
2022-10-22T12:14:04.580Z,99786.78
2022-10-22T12:16:54.695Z,99787.41
2022-10-22T12:19:20.464Z,99776.44
2022-10-22T12:21:52.213Z,99780.72
2022-10-22T12:24:22.317Z,99777.94
2022-10-22T12:26:52.864Z,99785.03
2022-10-22T12:29:26.689Z,99780.19
2022-10-22T12:31:54.297Z,99777.81
2022-10-22T12:34:25.030Z,99787.78
2022-10-22T12:36:53.516Z,99779.88
2022-10-22T12:39:25.251Z,99779.03
2022-10-22T12:41:53.398Z,99790.50
2022-10-22T12:44:20.479Z,99774.66
2022-10-22T12:46:52.912Z,99776.47
2022-10-22T12:49:29.742Z,99765.00
2022-10-22T12:52:03.149Z,99779.16
2022-10-22T12:54:32.204Z,99774.78
2022-10-22T12:57:00.537Z,99781.84
2022-10-22T12:59:30.844Z,99785.53
2022-10-22T13:01:57.981Z,99774.19
2022-10-22T13:04:36.511Z,99777.84
2022-10-22T13:07:12.032Z,99777.06
2022-10-22T13:09:40.240Z,99763.91
2022-10-22T13:12:10.770Z,99775.34
2022-10-22T13:14:38.727Z,99774.47
2022-10-22T13:17:06.710Z,99771.88
2022-10-22T13:19:41.165Z,99773.69
2022-10-22T13:22:30.069Z,99773.72
2022-10-22T13:24:59.971Z,99779.94
2022-10-22T13:27:28.570Z,99778.13
2022-10-22T13:29:56.888Z,99773.78
2022-10-22T13:32:31.913Z,99782.59
2022-10-22T13:35:00.614Z,99779.94
2022-10-22T13:37:30.063Z,99789.66
2022-10-22T13:39:56.821Z,99782.66
2022-10-22T13:42:23.718Z,99792.31
2022-10-22T13:44:50.342Z,99792.34
2022-10-22T13:47:37.232Z,99787.91
2022-10-22T13:50:11.186Z,99794.00
2022-10-22T13:52:49.900Z,99800.25
2022-10-22T13:55:29.622Z,99787.94
2022-10-22T14:01:08.895Z,99804.75
2022-10-22T14:03:37.942Z,99798.53
2022-10-22T14:06:11.511Z,99807.38
2022-10-22T14:08:38.251Z,99803.88
2022-10-22T14:11:04.925Z,99810.06
2022-10-22T14:13:31.507Z,99813.56
2022-10-22T14:15:58.100Z,99814.44
2022-10-22T14:18:29.066Z,99808.34
2022-10-22T14:20:58.831Z,99817.16
2022-10-22T14:23:28.449Z,99816.28
2022-10-22T14:25:55.532Z,99811.88
2022-10-22T14:28:22.200Z,99816.28
2022-10-22T14:30:49.722Z,99826.00
2022-10-22T14:33:27.159Z,99823.38
2022-10-22T14:35:57.068Z,99824.28
2022-10-22T14:38:23.649Z,99828.66
2022-10-22T14:40:50.782Z,99831.25
2022-10-22T14:43:29.409Z,99825.94
2022-10-22T14:45:56.086Z,99837.34
2022-10-22T14:48:22.710Z,99828.53
2022-10-22T14:50:49.506Z,99832.94
2022-10-22T14:53:17.049Z,99830.25
2022-10-22T14:55:47.276Z,99838.19
2022-10-22T14:58:14.691Z,99836.47
2022-10-22T15:00:42.649Z,99838.22
2022-10-22T15:03:09.881Z,99839.09
2022-10-22T15:05:36.532Z,99839.13
2022-10-22T15:08:03.140Z,99840.00
2022-10-22T15:10:29.838Z,99846.19
2022-10-22T15:12:56.674Z,99846.19
2022-10-22T15:15:24.576Z,99851.50
2022-10-22T15:17:52.199Z,99850.59
2022-10-22T15:20:18.795Z,99847.97
2022-10-22T15:22:45.564Z,99853.31
2022-10-22T15:25:13.794Z,99849.78
2022-10-22T15:27:40.597Z,99856.00
2022-10-22T15:30:08.397Z,99863.91
2022-10-22T15:32:35.286Z,99863.03
2022-10-22T15:35:02.796Z,99859.56
2022-10-22T15:37:29.379Z,99864.84
2022-10-22T15:39:55.930Z,99867.53
2022-10-22T15:42:24.003Z,99877.22
2022-10-22T15:44:58.107Z,99880.75
2022-10-22T15:47:28.579Z,99886.06
2022-10-22T15:49:55.367Z,99884.28
2022-10-22T15:52:22.306Z,99886.97
2022-10-22T15:54:49.003Z,99895.78
2022-10-22T15:57:15.582Z,99900.16
2022-10-22T15:59:42.222Z,99900.19
2022-10-22T16:02:10.916Z,99894.03
2022-10-22T16:04:38.468Z,99901.94
2022-10-22T16:07:05.152Z,99891.38
2022-10-22T16:09:31.779Z,99896.69
2022-10-22T16:11:58.391Z,99909.91
2022-10-22T16:14:25.055Z,99899.34
2022-10-22T16:16:53.960Z,99895.81
2022-10-22T16:19:22.450Z,99908.19
2022-10-22T16:21:51.296Z,99909.94
2022-10-22T16:24:19.135Z,99916.13
2022-10-22T16:26:46.557Z,99917.03
2022-10-22T16:29:13.265Z,99920.50
2022-10-22T16:31:41.352Z,99924.03
2022-10-22T16:34:08.157Z,99930.19
2022-10-22T16:36:36.461Z,99925.81
2022-10-22T16:39:04.467Z,99931.97
2022-10-22T16:41:35.488Z,99936.38
2022-10-22T16:44:08.018Z,99938.13
2022-10-22T16:46:38.381Z,99944.28
2022-10-22T16:49:06.519Z,99941.66
2022-10-22T16:51:33.604Z,99944.31
2022-10-22T16:54:00.255Z,99941.66
2022-10-22T16:56:28.418Z,99939.03
2022-10-22T16:58:57.111Z,99950.50
2022-10-22T17:01:29.555Z,99951.44
2022-10-22T17:03:59.329Z,99949.63
2022-10-22T17:06:26.302Z,99958.47
2022-10-22T17:08:55.264Z,99957.56
2022-10-22T17:11:24.927Z,99958.47
2022-10-22T17:13:54.054Z,99962.84
2022-10-22T17:16:23.383Z,99962.84
2022-10-22T17:18:50.445Z,99967.28
2022-10-22T17:21:18.301Z,99969.94
2022-10-22T17:23:45.819Z,99974.31
2022-10-22T17:26:22.895Z,99971.69
2022-10-22T17:28:50.117Z,99980.50
2022-10-22T17:31:26.989Z,99981.38
2022-10-22T17:33:56.549Z,99987.56
2022-10-22T17:36:24.361Z,99985.81
2022-10-22T17:38:55.043Z,99987.56
2022-10-22T17:41:27.876Z,99997.22
2022-10-22T17:43:57.083Z,99998.13
2022-10-22T17:46:31.082Z,99995.50
2022-10-22T17:49:01.856Z,100001.66
2022-10-22T17:51:31.001Z,100000.75
2022-10-22T17:53:57.866Z,100005.16
2022-10-22T17:56:27.419Z,100008.69
2022-10-22T17:58:54.633Z,100014.00
2022-10-22T18:01:25.056Z,100013.97
2022-10-22T18:03:53.470Z,100014.00
2022-10-22T18:06:20.551Z,100018.41
2022-10-22T18:08:47.253Z,100014.91
2022-10-22T18:11:17.820Z,100015.75
2022-10-22T18:13:47.699Z,100016.66
2022-10-22T18:16:14.291Z,100022.84
2022-10-22T18:18:40.881Z,100026.38
2022-10-22T18:21:07.502Z,100029.03
2022-10-22T18:23:34.215Z,100030.78
2022-10-22T18:26:04.034Z,100025.50
2022-10-22T18:28:30.625Z,100025.50
2022-10-22T18:30:57.274Z,100022.00
2022-10-22T18:33:25.223Z,100022.91
2022-10-22T18:35:53.193Z,100030.00
2022-10-22T18:38:23.729Z,100034.41
2022-10-22T18:40:50.734Z,100030.03
2022-10-22T18:43:17.933Z,100034.47
2022-10-22T18:45:46.197Z,100035.38
2022-10-22T18:48:14.831Z,100031.84
2022-10-22T18:50:41.482Z,100037.13
2022-10-22T18:53:08.359Z,100024.84
2022-10-22T18:55:38.292Z,100040.69
2022-10-22T18:58:04.837Z,100039.84
2022-10-22T19:00:31.647Z,100045.16
2022-10-22T19:02:58.407Z,100047.84
2022-10-22T19:05:24.994Z,100054.03
2022-10-22T19:07:51.676Z,100050.50
2022-10-22T19:10:18.649Z,100049.63
2022-10-22T19:12:45.558Z,100059.34
2022-10-22T19:15:13.226Z,100054.94
2022-10-22T19:17:42.506Z,100062.88
2022-10-22T19:20:09.831Z,100058.50
2022-10-22T19:22:36.487Z,100073.44
2022-10-22T19:25:04.278Z,100069.06
2022-10-22T19:27:33.162Z,100075.25
2022-10-22T19:29:59.776Z,100082.31
2022-10-22T19:32:30.142Z,100079.69
2022-10-22T19:34:57.645Z,100084.13
2022-10-22T19:37:24.478Z,100075.34
2022-10-22T19:39:51.067Z,100087.66
2022-10-22T19:42:17.652Z,100087.66
2022-10-22T19:50:42.345Z,100093.03
2022-10-22T19:53:09.018Z,100100.94
2022-10-22T19:55:35.654Z,100097.41
2022-10-22T19:58:02.273Z,100106.25
2022-10-22T20:10:02.064Z,100105.47
2022-10-22T20:12:42.839Z,100115.19
2022-10-22T20:15:24.326Z,100108.16
2022-10-22T20:17:53.444Z,100113.47
2022-10-22T20:20:24.239Z,100121.34
2022-10-22T20:22:52.878Z,100123.97
2022-10-22T20:25:19.473Z,100123.97
2022-10-22T20:27:48.715Z,100128.41
2022-10-22T20:32:48.440Z,100127.53
2022-10-22T20:35:15.983Z,100126.63
2022-10-22T20:37:46.992Z,100124.00
2022-10-22T20:40:13.568Z,100124.88
2022-10-22T20:42:40.944Z,100125.78
2022-10-22T20:45:08.444Z,100122.25
2022-10-22T20:47:50.875Z,100123.16
2022-10-22T20:50:29.885Z,100136.34
2022-10-22T20:55:36.326Z,100120.56
2022-10-22T20:58:03.032Z,100131.09
2022-10-22T21:00:29.736Z,100129.38
2022-10-22T21:05:49.300Z,100136.50
2022-10-22T21:10:53.225Z,100135.69
2022-10-22T21:13:19.826Z,100139.22
2022-10-22T21:15:46.430Z,100142.72
2022-10-22T21:18:13.008Z,100147.16
2022-10-22T21:20:40.158Z,100145.41
2022-10-22T21:23:07.090Z,100142.78
2022-10-22T21:25:34.097Z,100142.78
2022-10-22T21:28:00.800Z,100140.13
2022-10-22T21:39:04.468Z,100143.72
2022-10-22T21:41:33.361Z,100149.00
2022-10-22T21:44:00.142Z,100152.56
2022-10-22T21:46:28.158Z,100152.56
2022-10-22T21:48:57.251Z,100155.19
2022-10-22T21:51:24.918Z,100164.91
2022-10-22T21:56:22.205Z,100159.63
2022-10-22T21:58:49.136Z,100159.63
2022-10-22T22:01:16.657Z,100156.97
2022-10-22T22:03:45.583Z,100164.84
2022-10-22T22:06:19.102Z,100161.34
2022-10-22T22:08:48.188Z,100162.22
2022-10-22T22:11:17.747Z,100160.47
2022-10-22T22:13:44.834Z,100164.00
2022-10-22T22:16:17.883Z,100164.00
2022-10-22T22:18:44.503Z,100164.03
2022-10-22T22:21:17.169Z,100165.81
2022-10-22T22:23:46.382Z,100171.09
2022-10-22T22:26:14.687Z,100170.25
2022-10-22T22:28:41.375Z,100173.81
2022-10-22T22:31:29.362Z,100167.63
2022-10-22T22:34:00.981Z,100171.19
2022-10-22T22:36:28.045Z,100171.19
2022-10-22T22:38:56.397Z,100172.06
2022-10-22T22:41:23.218Z,100171.22
2022-10-22T22:43:49.879Z,100176.53
2022-10-22T22:46:16.494Z,100178.25
2022-10-22T22:48:43.345Z,100171.25
2022-10-22T22:51:10.568Z,100178.28
2022-10-22T22:53:37.221Z,100182.72
2022-10-22T22:56:15.974Z,100184.47
2022-10-22T22:58:43.809Z,100185.38
2022-10-22T23:01:23.883Z,100188.00
2022-10-22T23:04:02.460Z,100180.97
2022-10-22T23:06:32.888Z,100182.75
2022-10-22T23:09:00.029Z,100183.63
2022-10-22T23:11:27.982Z,100177.47
2022-10-22T23:13:57.759Z,100171.31
2022-10-22T23:16:27.706Z,100179.22
2022-10-22T23:18:55.829Z,100174.84
2022-10-22T23:21:31.931Z,100177.44
2022-10-22T23:23:59.979Z,100184.47
2022-10-22T23:26:30.015Z,100178.34
2022-10-22T23:29:03.736Z,100180.06
2022-10-22T23:31:30.479Z,100182.69
2022-10-22T23:33:57.110Z,100188.84
2022-10-22T23:36:23.715Z,100187.97
2022-10-22T23:38:50.478Z,100173.03
2022-10-22T23:41:18.197Z,100184.41
2022-10-22T23:43:44.823Z,100182.66
2022-10-22T23:46:13.653Z,100187.03
2022-10-22T23:48:40.802Z,100180.88
2022-10-22T23:51:09.903Z,100187.91
2022-10-22T23:53:36.535Z,100196.66
2022-10-22T23:56:08.432Z,100196.63
2022-10-22T23:58:35.496Z,100193.13
